Time;durP1;ratioP1;P1;durP2;ratioP2;P2;SDS_P1;SDS_P2;PMS_P1;PMS_P2;Temp;Humidity;BMP_temperature;BMP_pressure;BME280_temperature;BME280_humidity;BME280_pressure;Samples;Min_cycle;Max_cycle;Signal;HPM_P1;HPM_P2
2023/08/05 00:01:06;;;;;;;3.42;2.10;;;16.30;99.90;;;;;;5064769;28;20052;-75
2023/08/05 00:03:32;;;;;;;5.28;2.53;;;16.30;99.90;;;;;;5076053;28;20028;-77
2023/08/05 00:05:58;;;;;;;3.30;2.53;;;16.30;99.90;;;;;;5071945;28;20032;-77
2023/08/05 00:08:24;;;;;;;5.65;2.47;;;16.20;99.90;;;;;;5062503;28;20052;-77
2023/08/05 00:10:50;;;;;;;7.07;2.85;;;16.30;99.90;;;;;;5070195;28;20112;-74
2023/08/05 00:13:16;;;;;;;3.08;2.22;;;16.20;99.90;;;;;;5061897;28;20029;-78
2023/08/05 00:15:42;;;;;;;5.80;2.53;;;16.20;99.90;;;;;;5069254;28;20035;-77
2023/08/05 00:18:08;;;;;;;4.25;2.90;;;16.20;99.90;;;;;;5057292;28;20096;-78
2023/08/05 00:20:34;;;;;;;6.47;2.40;;;16.20;99.90;;;;;;5059467;28;20073;-76
2023/08/05 00:23:00;;;;;;;9.68;2.72;;;16.10;99.90;;;;;;5075661;28;20542;-75
2023/08/05 00:25:26;;;;;;;4.80;2.45;;;16.10;99.90;;;;;;5074327;28;20489;-75
2023/08/05 00:27:51;;;;;;;8.00;2.58;;;16.10;99.90;;;;;;5076287;28;20099;-78
2023/08/05 00:30:17;;;;;;;6.30;2.95;;;16.10;99.90;;;;;;5073642;28;20690;-78
2023/08/05 00:32:43;;;;;;;7.63;3.00;;;16.10;99.90;;;;;;5070702;28;20063;-74
2023/08/05 00:35:08;;;;;;;5.38;2.70;;;16.10;99.90;;;;;;5073715;28;20066;-76
2023/08/05 00:37:35;;;;;;;3.08;2.35;;;16.00;99.90;;;;;;5076018;28;20016;-79
2023/08/05 00:40:01;;;;;;;2.80;2.10;;;16.00;99.90;;;;;;5060096;28;20120;-75
2023/08/05 00:42:27;;;;;;;6.25;2.47;;;16.00;99.90;;;;;;5075221;28;20048;-77
2023/08/05 00:44:53;;;;;;;9.60;3.50;;;16.00;99.90;;;;;;5073684;28;20453;-74
2023/08/05 00:47:19;;;;;;;6.75;2.67;;;16.00;99.90;;;;;;5076054;28;20024;-77
2023/08/05 00:49:50;;;;;;;8.07;2.60;;;16.00;99.90;;;;;;5072477;28;20565;-73
2023/08/05 00:52:18;;;;;;;4.90;2.60;;;16.00;99.90;;;;;;5067529;28;20039;-74
2023/08/05 00:54:44;;;;;;;10.20;3.17;;;16.00;99.90;;;;;;5062758;28;20401;-73
2023/08/05 00:57:12;;;;;;;4.13;2.88;;;15.90;99.90;;;;;;5073189;28;20012;-74
2023/08/05 00:59:38;;;;;;;4.53;2.70;;;15.90;99.90;;;;;;5069542;28;20025;-78
2023/08/05 01:02:04;;;;;;;5.45;3.03;;;15.90;99.90;;;;;;5051949;28;20081;-78
2023/08/05 01:04:30;;;;;;;6.43;2.55;;;15.80;99.90;;;;;;5069200;28;20021;-73
2023/08/05 01:06:57;;;;;;;5.10;2.40;;;15.80;99.90;;;;;;5052972;28;20491;-76
2023/08/05 01:09:23;;;;;;;5.22;2.80;;;15.70;99.90;;;;;;5067292;28;20107;-78
2023/08/05 01:11:48;;;;;;;4.40;2.95;;;15.70;99.90;;;;;;5071541;28;20063;-77
2023/08/05 01:14:14;;;;;;;6.13;3.10;;;15.70;99.90;;;;;;5071651;28;20029;-76
2023/08/05 01:16:40;;;;;;;3.80;2.35;;;15.70;99.90;;;;;;5065202;28;20488;-78
2023/08/05 01:19:13;;;;;;;4.20;2.55;;;15.60;99.90;;;;;;5069863;28;20017;-76
2023/08/05 01:21:49;;;;;;;6.57;2.80;;;15.60;99.90;;;;;;5063354;28;20045;-77
2023/08/05 01:24:41;;;;;;;8.57;5.43;;;15.60;99.90;;;;;;5045434;28;20061;-78
2023/08/05 01:27:08;;;;;;;5.93;2.80;;;15.50;99.90;;;;;;5059102;28;20036;-77
2023/08/05 01:29:34;;;;;;;6.07;2.78;;;15.50;99.90;;;;;;5066184;28;20542;-78
2023/08/05 01:32:00;;;;;;;5.15;2.60;;;15.50;99.90;;;;;;5072325;28;20040;-79
2023/08/05 01:34:26;;;;;;;6.25;3.13;;;15.40;99.90;;;;;;5074533;28;20021;-74
2023/08/05 01:36:52;;;;;;;10.73;3.10;;;15.40;99.90;;;;;;5072572;28;20579;-77
2023/08/05 01:39:18;;;;;;;3.75;2.67;;;15.40;99.90;;;;;;5074840;28;20048;-75
2023/08/05 01:41:43;;;;;;;7.50;3.00;;;15.40;99.90;;;;;;5059595;28;20496;-74
2023/08/05 01:44:09;;;;;;;7.40;2.95;;;15.30;99.90;;;;;;5075105;28;20374;-74
2023/08/05 01:46:34;;;;;;;6.10;2.92;;;15.30;99.90;;;;;;5070983;28;20492;-75
2023/08/05 01:49:00;;;;;;;5.65;3.20;;;15.30;99.90;;;;;;5061615;28;20040;-74
2023/08/05 01:51:26;;;;;;;3.28;2.88;;;15.20;99.90;;;;;;5063775;28;20029;-77
2023/08/05 01:53:51;;;;;;;6.70;2.63;;;15.20;99.90;;;;;;5060027;28;20036;-76
2023/08/05 01:56:17;;;;;;;7.80;3.35;;;15.20;99.90;;;;;;5061538;28;20036;-76
2023/08/05 01:58:42;;;;;;;6.25;2.90;;;15.10;99.90;;;;;;5060921;28;20025;-77
2023/08/05 02:01:08;;;;;;;9.32;3.67;;;15.00;99.90;;;;;;5062057;28;20048;-77
2023/08/05 02:03:34;;;;;;;7.57;3.13;;;15.00;99.90;;;;;;5060791;28;20520;-78
2023/08/05 02:05:59;;;;;;;6.47;3.22;;;15.00;99.90;;;;;;5062883;28;20017;-76
2023/08/05 02:08:25;;;;;;;6.97;2.92;;;14.90;99.90;;;;;;5060437;28;20131;-76
2023/08/05 02:10:50;;;;;;;10.63;3.03;;;14.90;99.90;;;;;;5061544;28;20104;-75
2023/08/05 02:13:16;;;;;;;3.33;2.58;;;14.80;99.90;;;;;;5065426;28;20045;-76
2023/08/05 02:15:42;;;;;;;5.85;3.10;;;14.80;99.90;;;;;;5064405;28;20028;-76
2023/08/05 02:18:08;;;;;;;10.38;2.90;;;14.80;99.90;;;;;;5057635;28;20029;-76
2023/08/05 02:20:35;;;;;;;9.95;3.38;;;14.70;99.90;;;;;;5056341;28;20486;-74
2023/08/05 02:23:01;;;;;;;4.68;3.10;;;14.70;99.90;;;;;;5061149;28;20059;-77
2023/08/05 02:25:27;;;;;;;8.65;4.30;;;14.70;99.90;;;;;;5063540;28;20033;-77
2023/08/05 02:27:52;;;;;;;7.35;3.33;;;14.70;99.90;;;;;;5063745;28;20025;-77
2023/08/05 02:30:18;;;;;;;9.02;3.58;;;14.70;99.90;;;;;;5060965;28;20409;-77
2023/08/05 02:32:44;;;;;;;5.85;3.10;;;14.60;99.90;;;;;;5057057;28;20459;-76
2023/08/05 02:35:09;;;;;;;11.52;3.50;;;14.60;99.90;;;;;;5059986;28;20127;-78
2023/08/05 02:37:35;;;;;;;7.32;3.58;;;14.60;99.90;;;;;;5056863;28;20393;-77
2023/08/05 02:40:01;;;;;;;8.57;3.30;;;14.60;99.90;;;;;;5059391;28;20759;-78
2023/08/05 02:42:26;;;;;;;6.60;3.10;;;14.50;99.90;;;;;;5057659;28;20489;-76
2023/08/05 02:44:52;;;;;;;5.05;3.20;;;14.50;99.90;;;;;;5059361;28;20025;-76
2023/08/05 02:47:17;;;;;;;5.97;3.72;;;14.50;99.90;;;;;;5068780;28;20035;-77
2023/08/05 02:49:43;;;;;;;6.65;3.67;;;14.50;99.90;;;;;;5066030;28;20489;-76
2023/08/05 02:52:09;;;;;;;6.93;3.33;;;14.50;99.90;;;;;;5068867;28;20504;-78
2023/08/05 02:54:34;;;;;;;3.40;2.70;;;14.50;99.90;;;;;;5066381;28;20033;-75
2023/08/05 02:57:00;;;;;;;10.02;3.40;;;14.40;99.90;;;;;;5068914;28;20025;-73
2023/08/05 02:59:27;;;;;;;6.50;3.30;;;14.40;99.90;;;;;;5065533;28;20025;-76
2023/08/05 03:01:53;;;;;;;12.20;4.18;;;14.40;99.90;;;;;;5068878;28;20023;-76
2023/08/05 03:04:18;;;;;;;8.57;2.83;;;14.40;99.90;;;;;;5066071;28;20029;-77
2023/08/05 03:06:44;;;;;;;5.60;3.10;;;14.40;99.90;;;;;;5069611;28;20039;-75
2023/08/05 03:09:10;;;;;;;7.28;3.17;;;14.40;99.90;;;;;;5065891;28;20032;-76
2023/08/05 03:11:35;;;;;;;7.60;3.40;;;14.30;99.90;;;;;;5069694;28;20016;-76
2023/08/05 03:14:01;;;;;;;6.45;3.33;;;14.30;99.90;;;;;;5066841;28;20033;-77
2023/08/05 03:16:26;;;;;;;11.95;4.68;;;14.30;99.90;;;;;;5069987;28;20100;-75
2023/08/05 03:18:52;;;;;;;8.80;3.53;;;14.30;99.90;;;;;;5068675;28;20549;-75
2023/08/05 03:21:18;;;;;;;7.03;3.15;;;14.30;99.90;;;;;;5059739;28;20044;-76
2023/08/05 03:23:43;;;;;;;7.03;3.70;;;14.30;99.90;;;;;;5067128;28;20056;-76
2023/08/05 03:26:09;;;;;;;8.13;3.20;;;14.30;99.90;;;;;;5066176;28;20023;-78
2023/08/05 03:28:34;;;;;;;9.50;3.38;;;14.30;99.90;;;;;;5066742;28;20655;-74
2023/08/05 03:31:00;;;;;;;8.55;3.28;;;14.30;99.90;;;;;;5067713;28;20025;-79
2023/08/05 03:33:26;;;;;;;10.63;3.42;;;14.30;99.90;;;;;;5066984;28;20497;-76
2023/08/05 03:35:52;;;;;;;6.13;3.55;;;14.30;99.90;;;;;;5067944;28;20096;-78
2023/08/05 03:38:18;;;;;;;7.60;3.80;;;14.20;99.90;;;;;;5067426;28;20095;-77
2023/08/05 03:40:44;;;;;;;9.80;4.22;;;14.20;99.90;;;;;;5066270;28;20032;-78
2023/08/05 03:43:09;;;;;;;5.82;3.30;;;14.10;99.90;;;;;;5066260;28;20029;-78
2023/08/05 03:45:35;;;;;;;7.63;3.40;;;14.10;99.90;;;;;;5068216;28;20021;-76
2023/08/05 03:48:00;;;;;;;6.82;3.75;;;14.00;99.90;;;;;;5068356;28;20416;-77
2023/08/05 03:50:28;;;;;;;8.23;4.55;;;14.00;99.90;;;;;;5068138;28;20017;-76
2023/08/05 03:52:55;;;;;;;4.78;3.53;;;14.00;99.90;;;;;;5067319;28;20565;-75
2023/08/05 03:55:21;;;;;;;6.07;3.38;;;14.00;99.90;;;;;;5067799;28;20446;-75
2023/08/05 03:57:47;;;;;;;6.20;3.83;;;13.90;99.90;;;;;;5068005;28;20029;-75
2023/08/05 04:00:13;;;;;;;5.45;3.50;;;13.90;99.90;;;;;;5068132;28;20404;-77
2023/08/05 04:02:41;;;;;;;8.55;3.63;;;13.90;99.90;;;;;;5067912;28;20029;-76
2023/08/05 04:05:07;;;;;;;11.80;3.90;;;13.90;99.90;;;;;;5069791;28;20020;-76
2023/08/05 04:07:33;;;;;;;6.70;3.80;;;13.80;99.90;;;;;;5067880;28;20502;-77
2023/08/05 04:09:59;;;;;;;9.50;3.97;;;13.80;99.90;;;;;;5069806;28;20103;-77
2023/08/05 04:12:26;;;;;;;5.85;3.17;;;13.80;99.90;;;;;;5065853;28;20033;-77
2023/08/05 04:14:52;;;;;;;12.95;3.85;;;13.80;99.90;;;;;;5069595;28;20017;-77
2023/08/05 04:17:19;;;;;;;9.15;3.30;;;13.80;99.90;;;;;;5068014;28;20481;-76
2023/08/05 04:19:46;;;;;;;8.32;3.83;;;13.80;99.90;;;;;;5070241;28;20019;-76
2023/08/05 04:22:12;;;;;;;5.75;3.55;;;13.80;99.90;;;;;;5054747;28;20111;-77
2023/08/05 04:24:41;;;;;;;7.85;4.00;;;13.80;99.90;;;;;;5056375;28;20083;-77
2023/08/05 04:27:07;;;;;;;8.07;3.72;;;13.80;99.90;;;;;;5061360;28;20029;-76
2023/08/05 04:29:33;;;;;;;10.57;4.18;;;13.80;99.90;;;;;;5070815;28;20066;-76
2023/08/05 04:31:59;;;;;;;9.38;4.10;;;13.80;99.90;;;;;;5069566;28;20029;-77
2023/08/05 04:34:24;;;;;;;8.02;3.80;;;13.80;99.90;;;;;;5072032;28;20085;-76
2023/08/05 04:36:51;;;;;;;8.45;3.80;;;13.70;99.90;;;;;;5069823;28;20147;-76
2023/08/05 04:39:20;;;;;;;10.80;4.40;;;13.70;99.90;;;;;;5071589;28;20769;-76
2023/08/05 04:41:46;;;;;;;6.45;3.85;;;13.70;99.90;;;;;;5068649;28;20029;-77
2023/08/05 04:44:12;;;;;;;8.95;3.70;;;13.70;99.90;;;;;;5072474;28;20080;-77
2023/08/05 04:46:38;;;;;;;7.30;4.03;;;13.70;99.90;;;;;;5067603;28;20029;-76
2023/08/05 04:49:09;;;;;;;12.55;3.95;;;13.70;99.90;;;;;;5070805;28;20097;-77
2023/08/05 04:51:36;;;;;;;8.43;3.90;;;13.70;99.90;;;;;;5067909;28;20035;-76
2023/08/05 04:54:02;;;;;;;9.38;4.88;;;13.70;99.90;;;;;;5072677;28;20034;-77
2023/08/05 04:56:27;;;;;;;12.00;3.85;;;13.70;99.90;;;;;;5067152;28;20029;-76
2023/08/05 04:58:53;;;;;;;7.43;3.65;;;13.70;99.90;;;;;;5072515;28;20517;-76
2023/08/05 05:01:20;;;;;;;8.45;4.20;;;13.70;99.90;;;;;;5067101;28;20421;-75
2023/08/05 05:03:46;;;;;;;5.20;3.78;;;13.70;99.90;;;;;;5072174;28;20027;-76
2023/08/05 05:06:12;;;;;;;6.03;3.65;;;13.80;99.90;;;;;;5066569;28;20032;-76
2023/08/05 05:08:38;;;;;;;6.45;3.65;;;13.80;99.90;;;;;;5051560;28;20142;-76
2023/08/05 05:11:04;;;;;;;9.68;3.92;;;13.80;99.90;;;;;;5066201;28;20060;-77
2023/08/05 05:13:29;;;;;;;11.50;3.95;;;13.90;99.90;;;;;;5072109;28;20021;-77
2023/08/05 05:15:55;;;;;;;8.38;3.65;;;13.90;99.90;;;;;;5066059;28;20033;-76
2023/08/05 05:18:20;;;;;;;10.60;4.38;;;14.00;99.90;;;;;;5071277;28;20521;-77
2023/08/05 05:20:50;;;;;;;7.30;3.25;;;14.00;99.90;;;;;;5059065;28;20028;-76
2023/08/05 05:23:16;;;;;;;11.75;4.35;;;14.00;99.90;;;;;;5051374;28;20567;-76
2023/08/05 05:25:42;;;;;;;9.23;3.50;;;14.10;99.90;;;;;;5067174;28;20051;-76
2023/08/05 05:28:08;;;;;;;9.70;4.07;;;14.10;99.90;;;;;;5060044;28;20055;-77
2023/08/05 05:30:38;;;;;;;7.50;3.70;;;14.20;99.90;;;;;;5066629;28;20029;-75
2023/08/05 05:33:03;;;;;;;13.82;3.72;;;14.20;99.90;;;;;;5072551;28;20024;-75
2023/08/05 05:35:29;;;;;;;7.47;3.70;;;14.20;99.90;;;;;;5067392;28;20029;-77
2023/08/05 05:37:55;;;;;;;7.30;3.88;;;14.30;99.90;;;;;;5070816;28;20020;-78
2023/08/05 05:40:21;;;;;;;11.55;4.07;;;14.30;99.90;;;;;;5066567;28;20125;-76
2023/08/05 05:42:49;;;;;;;6.05;3.53;;;14.40;99.90;;;;;;5072417;28;20024;-77
2023/08/05 05:45:16;;;;;;;5.45;3.35;;;14.50;99.90;;;;;;5068487;28;20037;-77
2023/08/05 05:47:42;;;;;;;6.60;3.50;;;14.50;99.90;;;;;;5072610;28;20017;-75
2023/08/05 05:50:08;;;;;;;7.80;3.80;;;14.50;99.90;;;;;;5068352;28;20062;-76
2023/08/05 05:52:34;;;;;;;6.03;3.30;;;14.50;99.90;;;;;;5073357;28;20047;-78
2023/08/05 05:55:00;;;;;;;6.90;4.05;;;14.50;99.90;;;;;;5067465;28;20350;-76
2023/08/05 05:57:25;;;;;;;6.47;3.40;;;14.60;99.90;;;;;;5072425;28;20023;-77
2023/08/05 05:59:51;;;;;;;8.30;4.03;;;14.60;99.90;;;;;;5065405;28;20027;-76
2023/08/05 06:02:17;;;;;;;8.73;3.47;;;14.70;99.90;;;;;;5060478;28;20101;-73
2023/08/05 06:04:44;;;;;;;10.80;4.10;;;14.70;99.90;;;;;;5067682;28;20091;-77
2023/08/05 06:07:10;;;;;;;9.27;4.03;;;14.70;99.90;;;;;;5074086;28;20107;-76
2023/08/05 06:09:35;;;;;;;11.13;3.97;;;14.80;99.90;;;;;;5069100;28;20064;-77
2023/08/05 06:12:01;;;;;;;10.13;4.00;;;14.90;99.90;;;;;;5073216;28;20039;-76
2023/08/05 06:14:29;;;;;;;7.15;3.28;;;14.90;99.90;;;;;;5066871;28;20057;-76
2023/08/05 06:16:55;;;;;;;10.68;3.80;;;15.00;99.90;;;;;;5070807;28;20107;-77
2023/08/05 06:19:20;;;;;;;11.65;3.60;;;15.10;99.90;;;;;;5063394;28;20098;-77
2023/08/05 06:21:46;;;;;;;4.95;3.60;;;15.20;99.90;;;;;;5058895;28;20024;-77
2023/08/05 06:24:12;;;;;;;8.80;3.67;;;15.30;99.90;;;;;;5065494;28;20049;-76
2023/08/05 06:26:38;;;;;;;5.47;2.97;;;15.40;99.90;;;;;;5074392;28;20025;-75
2023/08/05 06:29:04;;;;;;;6.50;2.92;;;15.50;99.90;;;;;;5069835;28;20040;-74
2023/08/05 06:31:30;;;;;;;6.65;3.30;;;15.60;99.90;;;;;;5069163;28;20029;-74
2023/08/05 06:33:56;;;;;;;11.00;3.72;;;15.70;99.90;;;;;;5067214;28;20111;-74
2023/08/05 06:36:22;;;;;;;7.30;3.28;;;15.80;99.90;;;;;;5074004;28;20052;-75
2023/08/05 06:38:48;;;;;;;7.63;3.63;;;15.90;99.90;;;;;;5071490;28;20024;-76
2023/08/05 06:41:13;;;;;;;11.75;4.63;;;16.00;99.90;;;;;;5072578;28;20035;-72
2023/08/05 06:43:39;;;;;;;8.65;3.35;;;16.20;99.90;;;;;;5068277;28;20489;-77
2023/08/05 06:46:05;;;;;;;11.02;3.30;;;16.30;99.90;;;;;;5070489;28;20477;-76
2023/08/05 06:48:31;;;;;;;8.35;3.30;;;16.40;99.90;;;;;;5053420;28;20060;-78
2023/08/05 06:50:57;;;;;;;7.03;3.15;;;16.60;99.90;;;;;;5071183;28;20024;-73
2023/08/05 06:53:23;;;;;;;12.07;3.17;;;16.70;99.90;;;;;;5066593;28;20643;-73
2023/08/05 06:56:02;;;;;;;19.10;3.40;;;16.80;99.90;;;;;;5070975;28;20534;-73
2023/08/05 06:58:28;;;;;;;8.45;3.00;;;16.80;99.90;;;;;;5067356;28;20012;-72
2023/08/05 07:00:54;;;;;;;10.52;3.00;;;16.80;99.90;;;;;;5062889;28;20037;-75
2023/08/05 07:03:19;;;;;;;4.70;2.88;;;16.80;99.90;;;;;;5055993;28;20049;-75
2023/08/05 07:05:45;;;;;;;10.20;2.67;;;17.00;99.90;;;;;;5058016;28;20041;-72
2023/08/05 07:08:11;;;;;;;6.53;2.72;;;17.00;99.90;;;;;;5057259;28;20021;-76
2023/08/05 07:10:37;;;;;;;11.68;3.88;;;17.10;99.90;;;;;;5044140;28;20520;-74
2023/08/05 07:13:05;;;;;;;10.10;4.38;;;17.10;99.90;;;;;;5051456;28;20021;-74
2023/08/05 07:15:37;;;;;;;9.27;2.72;;;17.10;99.90;;;;;;5056016;28;20024;-75
2023/08/05 07:18:04;;;;;;;9.95;2.85;;;17.10;99.90;;;;;;5048334;28;20032;-72
2023/08/05 07:20:30;;;;;;;7.80;2.85;;;17.20;99.90;;;;;;5055320;28;20025;-74
2023/08/05 07:22:55;;;;;;;4.32;2.33;;;17.30;99.90;;;;;;5050997;28;20077;-74
2023/08/05 07:25:21;;;;;;;5.63;2.83;;;17.30;99.90;;;;;;5056040;28;20141;-73
2023/08/05 07:27:47;;;;;;;10.43;3.35;;;17.50;99.90;;;;;;5049666;28;20029;-73
2023/08/05 07:30:12;;;;;;;19.02;3.22;;;17.40;99.90;;;;;;5055570;28;20028;-74
2023/08/05 07:32:38;;;;;;;4.90;2.78;;;17.40;99.90;;;;;;5055234;28;20078;-73
2023/08/05 07:35:07;;;;;;;7.55;2.95;;;17.40;99.90;;;;;;5041533;28;20067;-73
2023/08/05 07:37:34;;;;;;;7.63;3.13;;;17.50;99.90;;;;;;5050577;28;20497;-74
2023/08/05 07:40:00;;;;;;;7.57;3.00;;;17.60;99.90;;;;;;5051826;28;20417;-74
2023/08/05 07:42:27;;;;;;;4.63;2.50;;;17.80;99.90;;;;;;5055306;28;20032;-75
2023/08/05 07:44:53;;;;;;;14.75;3.95;;;17.90;99.90;;;;;;5051669;28;20037;-73
2023/08/05 07:47:19;;;;;;;8.25;2.70;;;18.10;99.90;;;;;;5054963;28;20084;-74
2023/08/05 07:49:45;;;;;;;8.20;2.58;;;18.20;99.90;;;;;;5052055;28;20029;-72
2023/08/05 07:52:10;;;;;;;6.45;2.95;;;18.10;99.90;;;;;;5055212;28;20107;-75
2023/08/05 07:54:36;;;;;;;5.57;2.10;;;18.00;99.90;;;;;;5057405;28;20497;-74
2023/08/05 07:57:02;;;;;;;9.32;2.83;;;18.00;99.90;;;;;;5054872;28;20024;-77
2023/08/05 07:59:28;;;;;;;8.88;3.30;;;18.00;99.90;;;;;;5057774;28;20028;-75
2023/08/05 08:01:55;;;;;;;5.43;2.22;;;17.90;99.90;;;;;;5063686;28;20029;-76
2023/08/05 08:04:21;;;;;;;5.72;3.05;;;18.00;99.90;;;;;;5061753;28;20043;-76
2023/08/05 08:06:47;;;;;;;7.28;2.45;;;18.10;99.90;;;;;;5058686;28;20025;-75
2023/08/05 08:09:13;;;;;;;4.68;2.50;;;18.20;99.90;;;;;;5062660;28;20412;-78
2023/08/05 08:11:40;;;;;;;14.45;2.67;;;18.30;99.90;;;;;;5055722;28;20534;-75
2023/08/05 08:14:05;;;;;;;7.53;2.63;;;18.40;99.90;;;;;;5058344;28;20028;-75
2023/08/05 08:16:32;;;;;;;7.22;2.10;;;18.50;99.90;;;;;;5054577;28;20029;-73
2023/08/05 08:18:58;;;;;;;7.78;2.20;;;18.70;99.90;;;;;;5061282;28;20028;-75
2023/08/05 08:21:24;;;;;;;5.10;2.15;;;18.70;99.90;;;;;;5048384;28;20033;-78
2023/08/05 08:23:49;;;;;;;3.97;1.95;;;19.00;99.90;;;;;;5056546;28;20052;-76
2023/08/05 08:26:15;;;;;;;3.55;2.28;;;19.40;99.90;;;;;;5056859;28;20032;-74
2023/08/05 08:28:41;;;;;;;4.60;2.10;;;19.40;99.90;;;;;;5058763;28;20027;-76
2023/08/05 08:31:06;;;;;;;6.45;2.35;;;19.30;99.90;;;;;;5055465;28;20021;-75
2023/08/05 08:33:32;;;;;;;6.00;2.53;;;19.20;99.90;;;;;;5062685;28;20033;-76
2023/08/05 08:35:58;;;;;;;4.15;2.40;;;19.00;99.90;;;;;;5061165;28;20386;-76
2023/08/05 08:38:23;;;;;;;5.05;2.28;;;19.10;99.90;;;;;;5058364;28;20029;-76
2023/08/05 08:40:51;;;;;;;4.07;2.03;;;19.30;99.90;;;;;;5058553;28;20017;-76
2023/08/05 08:43:18;;;;;;;7.70;1.77;;;19.50;99.90;;;;;;5052130;28;20021;-76
2023/08/05 08:45:52;;;;;;;7.35;2.40;;;19.70;99.90;;;;;;5058488;28;20025;-75
2023/08/05 08:48:18;;;;;;;7.13;2.00;;;19.70;99.90;;;;;;5059363;28;20033;-75
2023/08/05 08:50:46;;;;;;;3.50;1.85;;;19.70;99.90;;;;;;5058476;28;20515;-77
2023/08/05 08:53:14;;;;;;;4.93;2.13;;;19.70;99.90;;;;;;5052323;28;20020;-75
2023/08/05 08:55:41;;;;;;;3.88;1.90;;;19.80;99.90;;;;;;5061631;28;20496;-75
2023/08/05 08:58:07;;;;;;;5.38;2.10;;;19.70;99.90;;;;;;5058736;28;20529;-75
2023/08/05 09:00:34;;;;;;;6.70;1.80;;;19.60;99.90;;;;;;5056340;28;20297;-76
2023/08/05 09:03:03;;;;;;;8.90;2.22;;;19.50;99.90;;;;;;5062329;28;20028;-76
2023/08/05 09:05:45;;;;;;;9.25;1.92;;;19.70;99.90;;;;;;5061915;28;20059;-76
2023/08/05 09:08:11;;;;;;;5.32;2.55;;;20.10;99.90;;;;;;5057047;28;20028;-74
2023/08/05 09:10:40;;;;;;;4.53;1.83;;;20.20;99.90;;;;;;5055988;28;20077;-77
2023/08/05 09:13:06;;;;;;;4.25;1.83;;;19.90;99.90;;;;;;5055425;28;20037;-75
2023/08/05 09:15:34;;;;;;;4.93;2.22;;;19.80;99.90;;;;;;5061210;28;20021;-76
2023/08/05 09:18:00;;;;;;;5.20;1.70;;;19.90;99.90;;;;;;5053855;28;20507;-77
2023/08/05 09:20:26;;;;;;;6.10;2.78;;;20.10;99.90;;;;;;5054676;28;20025;-80
2023/08/05 09:23:03;;;;;;;6.15;2.20;;;20.30;99.90;;;;;;5062000;28;20044;-77
2023/08/05 09:25:30;;;;;;;3.30;2.00;;;20.20;99.90;;;;;;5057701;28;20060;-76
2023/08/05 09:27:57;;;;;;;5.05;1.60;;;20.40;99.90;;;;;;5072492;28;20028;-75
2023/08/05 09:30:24;;;;;;;8.65;2.45;;;20.40;99.90;;;;;;5071012;28;20040;-74
2023/08/05 09:32:54;;;;;;;4.50;2.10;;;20.10;99.90;;;;;;5051447;28;20054;-79
2023/08/05 09:35:20;;;;;;;4.87;1.70;;;20.00;99.90;;;;;;5070146;28;20116;-77
2023/08/05 09:37:48;;;;;;;7.05;1.52;;;20.00;99.90;;;;;;5060229;28;20857;-75
2023/08/05 09:40:18;;;;;;;6.85;1.88;;;20.00;99.90;;;;;;5065430;28;20040;-78
2023/08/05 09:42:50;;;;;;;6.32;1.90;;;20.20;99.90;;;;;;5076311;28;20020;-76
2023/08/05 09:45:18;;;;;;;5.45;1.85;;;20.60;99.90;;;;;;5063754;28;20028;-75
2023/08/05 09:47:47;;;;;;;7.03;2.00;;;20.80;99.90;;;;;;5074961;28;20483;-77
2023/08/05 09:50:14;;;;;;;8.35;1.75;;;20.90;99.90;;;;;;5066143;28;20040;-76
2023/08/05 09:52:41;;;;;;;7.20;1.92;;;21.00;99.90;;;;;;5066329;28;20033;-74
2023/08/05 09:55:18;;;;;;;7.03;2.08;;;21.20;99.90;;;;;;5064310;28;20037;-77
2023/08/05 09:57:45;;;;;;;4.10;1.83;;;21.00;99.90;;;;;;5048131;28;20017;-78
2023/08/05 10:00:14;;;;;;;3.70;1.50;;;21.10;99.90;;;;;;5061135;28;20040;-76
2023/08/05 10:02:45;;;;;;;7.15;2.25;;;21.40;99.90;;;;;;5046562;28;20095;-76
2023/08/05 10:05:12;;;;;;;6.25;1.45;;;21.40;99.90;;;;;;5057127;28;20444;-76
2023/08/05 10:07:42;;;;;;;4.85;1.48;;;21.40;99.90;;;;;;5057773;28;20013;-77
2023/08/05 10:10:12;;;;;;;6.85;1.80;;;21.20;99.90;;;;;;5055962;28;20554;-79
2023/08/05 10:12:51;;;;;;;2.78;1.60;;;20.90;99.90;;;;;;5057432;28;20021;-80
2023/08/05 10:15:27;;;;;;;3.40;1.83;;;21.20;99.90;;;;;;5056498;28;20124;-76
2023/08/05 10:17:53;;;;;;;4.00;1.63;;;21.40;99.90;;;;;;5057471;28;20028;-75
2023/08/05 10:20:19;;;;;;;6.53;1.90;;;21.30;99.90;;;;;;5058632;28;20481;-79
2023/08/05 10:23:06;;;;;;;3.85;1.50;;;21.20;99.90;;;;;;5058644;28;20540;-74
2023/08/05 10:25:42;;;;;;;3.25;1.70;;;21.30;99.90;;;;;;5066236;28;20055;-80
2023/08/05 10:28:28;;;;;;;5.95;2.08;;;21.40;99.90;;;;;;5068477;28;20066;-78
2023/08/05 10:30:54;;;;;;;3.33;1.70;;;21.60;99.90;;;;;;5071831;28;20048;-76
2023/08/05 10:33:20;;;;;;;4.78;1.65;;;21.70;99.90;;;;;;5072075;28;20034;-76
2023/08/05 10:35:48;;;;;;;3.08;1.85;;;21.70;99.90;;;;;;5069092;28;20044;-79
2023/08/05 10:38:16;;;;;;;4.18;1.88;;;21.80;99.90;;;;;;5059090;28;20036;-74
2023/08/05 10:40:48;;;;;;;5.93;1.85;;;22.00;99.90;;;;;;5073643;28;20031;-78
2023/08/05 10:43:32;;;;;;;4.38;1.52;;;22.00;99.90;;;;;;5073291;28;20048;-76
2023/08/05 10:46:04;;;;;;;6.18;1.67;;;21.60;99.90;;;;;;5075045;28;20074;-77
2023/08/05 10:48:38;;;;;;;6.22;1.98;;;21.50;99.90;;;;;;5068640;28;20029;-77
2023/08/05 10:51:22;;;;;;;4.13;1.33;;;21.40;99.90;;;;;;5070242;28;20025;-77
2023/08/05 10:53:50;;;;;;;4.63;1.45;;;21.50;99.90;;;;;;5056940;28;20021;-77
2023/08/05 10:56:16;;;;;;;4.15;2.03;;;21.70;99.90;;;;;;5067667;28;20485;-82
2023/08/05 10:58:51;;;;;;;4.70;1.67;;;22.00;99.90;;;;;;5070475;28;20093;-79
2023/08/05 11:01:17;;;;;;;6.53;1.70;;;22.30;99.90;;;;;;5064647;28;20021;-76
2023/08/05 11:03:52;;;;;;;6.90;1.90;;;22.10;99.90;;;;;;5071412;28;20570;-78
2023/08/05 11:06:25;;;;;;;4.10;1.90;;;22.20;99.90;;;;;;5058463;28;20028;-83
2023/08/05 11:08:51;;;;;;;4.32;1.60;;;22.40;99.90;;;;;;5066818;28;20021;-78
2023/08/05 11:11:18;;;;;;;2.70;1.55;;;22.60;99.90;;;;;;5059812;28;20107;-78
2023/08/05 11:13:46;;;;;;;4.20;1.83;;;22.50;99.90;;;;;;5057184;28;20036;-80
2023/08/05 11:16:13;;;;;;;5.32;1.70;;;22.60;99.90;;;;;;5062589;28;20519;-77
2023/08/05 11:18:40;;;;;;;8.40;2.17;;;22.70;99.90;;;;;;5067995;28;20032;-78
2023/08/05 11:21:10;;;;;;;3.65;1.50;;;22.90;99.90;;;;;;5050426;28;20401;-77
2023/08/05 11:23:38;;;;;;;5.60;1.83;;;22.50;99.90;;;;;;5067190;28;20420;-77
2023/08/05 11:26:04;;;;;;;4.85;1.58;;;22.30;99.90;;;;;;5057148;28;20283;-79
2023/08/05 11:28:31;;;;;;;11.20;1.63;;;22.40;99.90;;;;;;5061594;28;20153;-79
2023/08/05 11:30:57;;;;;;;4.70;1.80;;;22.40;99.90;;;;;;5058923;28;20064;-75
2023/08/05 11:33:23;;;;;;;4.93;1.60;;;22.60;99.90;;;;;;5063751;28;20112;-79
2023/08/05 11:35:52;;;;;;;5.20;2.05;;;22.60;99.90;;;;;;5061282;28;20052;-79
2023/08/05 11:38:23;;;;;;;5.40;1.77;;;22.60;99.90;;;;;;5062929;28;20028;-81
2023/08/05 11:40:52;;;;;;;3.78;1.48;;;22.50;99.90;;;;;;5059711;28;20366;-78
2023/08/05 11:43:19;;;;;;;7.57;2.07;;;22.50;99.90;;;;;;5068040;28;20397;-77
2023/08/05 11:45:46;;;;;;;6.75;1.70;;;22.50;99.90;;;;;;5071420;28;20762;-84
2023/08/05 11:48:26;;;;;;;5.30;1.75;;;22.60;99.90;;;;;;5068142;28;20040;-83
2023/08/05 11:50:59;;;;;;;7.93;1.58;;;22.90;99.90;;;;;;5052796;28;20028;-75
2023/08/05 11:53:28;;;;;;;2.30;1.15;;;22.90;99.90;;;;;;5051005;28;20036;-76
2023/08/05 11:55:54;;;;;;;4.22;1.70;;;23.00;99.90;;;;;;5070080;28;20386;-77
2023/08/05 11:58:23;;;;;;;5.68;1.73;;;22.90;99.90;;;;;;5073597;28;20039;-75
2023/08/05 12:00:53;;;;;;;7.80;2.10;;;22.70;99.90;;;;;;5068040;28;20024;-76
2023/08/05 12:03:19;;;;;;;6.35;1.50;;;22.50;99.90;;;;;;5070110;28;20025;-77
2023/08/05 12:05:48;;;;;;;2.78;1.77;;;22.70;99.90;;;;;;5060064;28;20063;-76
2023/08/05 12:08:42;;;;;;;4.38;1.50;;;22.90;99.90;;;;;;5066876;28;20025;-78
2023/08/05 12:11:08;;;;;;;6.68;2.00;;;23.10;99.90;;;;;;5058109;28;20447;-77
2023/08/05 12:13:35;;;;;;;5.88;1.77;;;23.40;99.90;;;;;;5071331;28;20041;-76
2023/08/05 12:16:01;;;;;;;3.60;1.70;;;23.60;99.30;;;;;;5067275;28;20128;-77
2023/08/05 12:18:27;;;;;;;7.28;2.42;;;23.90;98.80;;;;;;5071146;28;20040;-79
2023/08/05 12:20:53;;;;;;;3.42;1.77;;;24.10;99.00;;;;;;5059857;28;20029;-77
2023/08/05 12:23:18;;;;;;;6.10;2.17;;;24.10;97.50;;;;;;5070050;28;20057;-78
2023/08/05 12:25:45;;;;;;;6.88;1.75;;;24.30;98.40;;;;;;5066907;28;20037;-77
2023/08/05 12:28:11;;;;;;;4.30;1.58;;;24.40;98.00;;;;;;5071156;28;20028;-75
2023/08/05 12:30:36;;;;;;;7.10;1.67;;;24.60;97.20;;;;;;5057103;28;20068;-78
2023/08/05 12:33:03;;;;;;;3.60;1.50;;;24.50;96.90;;;;;;5057511;28;20024;-79
2023/08/05 12:35:28;;;;;;;3.58;1.38;;;24.40;96.80;;;;;;5066770;28;20079;-81
2023/08/05 12:37:54;;;;;;;6.72;1.92;;;24.60;96.80;;;;;;5069402;28;20488;-79
2023/08/05 12:40:20;;;;;;;3.80;1.45;;;24.30;96.30;;;;;;5057502;28;20021;-78
2023/08/05 12:42:45;;;;;;;3.30;1.85;;;24.20;96.10;;;;;;5066116;28;20025;-76
2023/08/05 12:45:11;;;;;;;6.32;1.52;;;23.90;96.30;;;;;;5065733;28;20614;-78